Time;durP1;ratioP1;P1;durP2;ratioP2;P2;SDS_P1;SDS_P2;PMS_P1;PMS_P2;Temp;Humidity;BMP_temperature;BMP_pressure;BME280_temperature;BME280_humidity;BME280_pressure;Samples;Min_cycle;Max_cycle;Signal;HPM_P1;HPM_P2
2022/08/22 00:00:49;;;;;;;3.23;2.03;;;18.10;99.90;;;;;;4994304;28;20039;-69
2022/08/22 00:03:49;;;;;;;2.88;1.58;;;18.10;99.90;;;;;;4994920;28;20022;-69
2022/08/22 00:06:23;;;;;;;2.47;2.00;;;18.00;99.90;;;;;;4964100;28;20093;-69
2022/08/22 00:09:13;;;;;;;2.47;1.67;;;18.00;99.90;;;;;;4994304;28;20097;-69
2022/08/22 00:12:07;;;;;;;2.35;1.73;;;18.00;99.90;;;;;;4994074;28;20049;-69
2022/08/22 00:15:23;;;;;;;3.30;1.92;;;18.00;99.90;;;;;;4993974;28;20058;-69
2022/08/22 00:18:02;;;;;;;1.60;1.50;;;17.90;99.90;;;;;;4936105;28;20046;-69
2022/08/22 00:21:07;;;;;;;2.40;2.15;;;17.90;99.90;;;;;;4993998;28;20073;-69
2022/08/22 00:24:01;;;;;;;2.35;2.03;;;17.80;99.90;;;;;;4982255;28;20042;-70
2022/08/22 00:26:39;;;;;;;2.33;1.90;;;17.80;99.90;;;;;;4994319;28;20026;-69
2022/08/22 00:29:14;;;;;;;2.53;1.90;;;17.80;99.90;;;;;;4994280;28;20030;-69
2022/08/22 00:31:45;;;;;;;2.70;2.10;;;17.70;99.90;;;;;;4993518;28;20058;-69
2022/08/22 00:34:15;;;;;;;4.22;2.30;;;17.70;99.90;;;;;;4994099;28;20026;-68
2022/08/22 00:36:58;;;;;;;2.78;1.73;;;17.70;99.90;;;;;;4993271;28;20434;-69
2022/08/22 00:39:39;;;;;;;3.50;2.05;;;17.70;99.90;;;;;;4993976;28;20160;-69
2022/08/22 00:42:23;;;;;;;1.60;1.50;;;17.70;99.90;;;;;;4993537;28;20525;-69
2022/08/22 00:45:13;;;;;;;3.78;1.83;;;17.70;99.90;;;;;;4993556;28;20035;-69
2022/08/22 00:48:06;;;;;;;2.05;1.27;;;17.70;99.90;;;;;;4993580;28;20076;-70
2022/08/22 00:50:57;;;;;;;1.83;1.65;;;17.70;99.90;;;;;;4993554;28;20558;-69
2022/08/22 00:53:45;;;;;;;2.20;1.38;;;17.70;99.90;;;;;;4993820;28;20537;-68
2022/08/22 00:56:34;;;;;;;2.47;1.75;;;17.60;99.90;;;;;;4995962;28;20033;-68
2022/08/22 00:59:09;;;;;;;1.58;1.40;;;17.60;99.90;;;;;;4993717;28;20027;-68
2022/08/22 01:01:38;;;;;;;1.75;1.63;;;17.50;99.90;;;;;;4993216;28;20018;-68
2022/08/22 01:04:36;;;;;;;1.63;1.52;;;17.50;99.90;;;;;;4993193;28;20058;-68
2022/08/22 01:07:17;;;;;;;1.98;1.52;;;17.50;99.90;;;;;;4993519;28;20030;-69
2022/08/22 01:10:04;;;;;;;2.28;1.60;;;17.40;99.90;;;;;;4992720;28;20033;-69
2022/08/22 01:13:11;;;;;;;2.72;1.65;;;17.40;99.90;;;;;;4993597;28;20030;-68
2022/08/22 01:15:38;;;;;;;2.35;1.60;;;17.40;99.90;;;;;;4992695;28;20108;-69
2022/08/22 01:18:26;;;;;;;2.28;1.67;;;17.30;99.90;;;;;;4993346;28;20030;-68
2022/08/22 01:21:19;;;;;;;3.90;1.42;;;17.30;99.90;;;;;;4994768;28;20483;-67
2022/08/22 01:24:29;;;;;;;3.13;1.75;;;17.30;99.90;;;;;;4993179;28;20068;-68
2022/08/22 01:27:48;;;;;;;2.47;1.67;;;17.30;99.90;;;;;;4913812;29;20040;-67
2022/08/22 01:30:31;;;;;;;2.15;1.33;;;17.30;99.90;;;;;;4956192;28;20065;-69
2022/08/22 01:33:27;;;;;;;1.92;1.70;;;17.30;99.90;;;;;;4993053;28;20030;-70
2022/08/22 01:36:27;;;;;;;2.47;1.90;;;17.30;99.90;;;;;;4992716;28;20050;-69
2022/08/22 01:39:35;;;;;;;1.92;1.80;;;17.30;99.90;;;;;;4992738;28;20057;-68
2022/08/22 01:42:04;;;;;;;1.88;1.52;;;17.30;99.90;;;;;;4992648;28;20125;-69
2022/08/22 01:44:35;;;;;;;2.20;1.67;;;17.30;99.90;;;;;;4992996;28;20030;-69
2022/08/22 01:47:13;;;;;;;2.17;1.55;;;17.30;99.90;;;;;;4992393;28;20563;-68
2022/08/22 01:49:45;;;;;;;1.85;1.60;;;17.20;99.90;;;;;;4992902;28;20081;-70
2022/08/22 01:52:27;;;;;;;1.50;1.25;;;17.20;99.90;;;;;;4993503;28;20048;-69
2022/08/22 01:55:07;;;;;;;2.33;1.15;;;17.20;99.90;;;;;;4992572;28;20035;-68
2022/08/22 01:57:54;;;;;;;1.45;1.30;;;17.10;99.90;;;;;;4992964;28;20026;-70
2022/08/22 02:00:22;;;;;;;1.40;1.20;;;17.10;99.90;;;;;;4993126;28;20137;-69
2022/08/22 02:03:01;;;;;;;1.38;1.27;;;17.10;99.90;;;;;;4992522;28;20034;-70
2022/08/22 02:05:38;;;;;;;1.70;1.40;;;17.10;99.90;;;;;;4993145;28;20046;-69
2022/08/22 02:08:32;;;;;;;1.58;1.23;;;17.10;99.90;;;;;;4992700;28;20030;-69
2022/08/22 02:11:05;;;;;;;1.45;1.25;;;17.10;99.90;;;;;;4992187;28;20517;-70
2022/08/22 02:13:50;;;;;;;1.52;1.23;;;17.10;99.90;;;;;;4992879;28;20026;-69
2022/08/22 02:17:08;;;;;;;1.20;1.10;;;17.00;99.90;;;;;;4992844;28;20030;-68
2022/08/22 02:19:43;;;;;;;1.92;1.38;;;17.00;99.90;;;;;;4913427;29;20048;-68
2022/08/22 02:22:37;;;;;;;2.90;1.42;;;17.00;99.90;;;;;;4991154;28;20037;-68
2022/08/22 02:25:28;;;;;;;2.22;1.35;;;17.00;99.90;;;;;;4992324;28;20038;-68
2022/08/22 02:28:07;;;;;;;1.70;1.40;;;17.00;99.90;;;;;;4995415;28;20046;-68
2022/08/22 02:30:47;;;;;;;1.40;1.30;;;17.00;99.90;;;;;;4996486;28;20364;-68
2022/08/22 02:33:35;;;;;;;3.25;1.58;;;16.90;99.90;;;;;;4996425;28;20062;-68
2022/08/22 02:36:24;;;;;;;1.92;1.50;;;16.90;99.90;;;;;;4995856;28;20113;-68
2022/08/22 02:39:19;;;;;;;1.55;1.35;;;16.90;99.90;;;;;;4996004;28;20046;-70
2022/08/22 02:41:51;;;;;;;1.80;1.35;;;16.90;99.90;;;;;;4995901;28;20034;-68
2022/08/22 02:44:40;;;;;;;2.03;1.70;;;16.90;99.90;;;;;;4996182;28;20046;-69
2022/08/22 02:47:05;;;;;;;2.08;1.88;;;16.90;99.90;;;;;;4995815;28;20414;-68
2022/08/22 02:49:40;;;;;;;1.83;1.33;;;16.90;99.90;;;;;;4995992;28;20138;-69
2022/08/22 02:52:32;;;;;;;2.10;1.38;;;16.90;99.90;;;;;;4995688;28;20030;-68
2022/08/22 02:55:10;;;;;;;2.53;1.70;;;16.90;99.90;;;;;;4995832;28;20034;-68
2022/08/22 02:57:59;;;;;;;1.33;1.23;;;16.90;99.90;;;;;;4996004;28;20490;-68
2022/08/22 03:00:29;;;;;;;1.90;1.70;;;16.90;99.90;;;;;;4979657;28;20514;-69
2022/08/22 03:02:58;;;;;;;2.25;1.67;;;16.90;99.90;;;;;;4994896;28;20034;-69
2022/08/22 03:05:35;;;;;;;6.30;1.55;;;16.90;99.90;;;;;;4997362;28;20069;-70
2022/08/22 03:08:29;;;;;;;1.55;1.45;;;16.90;99.90;;;;;;5014875;28;20030;-70
2022/08/22 03:11:07;;;;;;;2.80;1.67;;;16.90;99.90;;;;;;5014884;28;20083;-70
2022/08/22 03:13:48;;;;;;;1.65;1.50;;;16.90;99.90;;;;;;5015630;28;20030;-70
2022/08/22 03:16:37;;;;;;;1.63;1.50;;;16.80;99.90;;;;;;5001542;28;20030;-70
2022/08/22 03:19:33;;;;;;;1.73;1.40;;;16.80;99.90;;;;;;4994764;28;20039;-70
2022/08/22 03:22:09;;;;;;;1.90;1.45;;;16.80;99.90;;;;;;4957850;28;20034;-70
2022/08/22 03:24:58;;;;;;;3.78;1.58;;;16.80;99.90;;;;;;4995238;28;20053;-68
2022/08/22 03:27:50;;;;;;;1.40;1.10;;;16.80;99.90;;;;;;4995262;28;20026;-68
2022/08/22 03:30:32;;;;;;;2.53;1.20;;;16.80;99.90;;;;;;4995172;28;20026;-68
2022/08/22 03:33:15;;;;;;;4.20;1.10;;;16.70;99.90;;;;;;4994434;28;20449;-69
2022/08/22 03:35:44;;;;;;;1.33;1.00;;;16.70;99.90;;;;;;4995054;28;20038;-68
2022/08/22 03:38:27;;;;;;;2.35;1.25;;;16.70;99.90;;;;;;4994268;28;20049;-68
2022/08/22 03:41:02;;;;;;;2.60;1.10;;;16.70;99.90;;;;;;4994102;28;20534;-69
2022/08/22 03:43:37;;;;;;;1.15;0.85;;;16.70;99.90;;;;;;4994708;28;20057;-69
2022/08/22 03:46:40;;;;;;;1.50;0.95;;;16.70;99.90;;;;;;4994450;28;20033;-68
2022/08/22 03:49:30;;;;;;;1.15;1.00;;;16.70;99.90;;;;;;4994408;28;20113;-69
2022/08/22 03:52:23;;;;;;;1.77;1.10;;;16.60;99.90;;;;;;4994322;28;20018;-69
2022/08/22 03:55:26;;;;;;;2.78;1.00;;;16.60;99.90;;;;;;4994014;28;20114;-70
2022/08/22 03:58:17;;;;;;;1.15;0.90;;;16.60;99.90;;;;;;4994129;28;20045;-69
2022/08/22 04:01:12;;;;;;;1.10;1.00;;;16.60;99.90;;;;;;4994342;28;20068;-68
2022/08/22 04:03:56;;;;;;;1.38;1.27;;;16.50;99.90;;;;;;4994149;28;20030;-68
2022/08/22 04:06:27;;;;;;;1.17;1.08;;;16.50;99.90;;;;;;4994586;28;20032;-69
2022/08/22 04:09:23;;;;;;;1.60;1.33;;;16.50;99.90;;;;;;4994267;28;20075;-69
2022/08/22 04:12:12;;;;;;;2.03;1.38;;;16.50;99.90;;;;;;4993780;28;20037;-70
2022/08/22 04:14:46;;;;;;;1.60;1.23;;;16.50;99.90;;;;;;4994102;28;20026;-68
2022/08/22 04:17:50;;;;;;;1.58;1.48;;;16.50;99.90;;;;;;4993808;28;20057;-69
2022/08/22 04:20:25;;;;;;;1.25;1.15;;;16.50;99.90;;;;;;4976692;28;20054;-68
2022/08/22 04:23:18;;;;;;;1.15;0.85;;;16.50;99.90;;;;;;4993991;28;20480;-69
2022/08/22 04:25:50;;;;;;;1.52;1.30;;;16.50;99.90;;;;;;4994052;28;20100;-68
2022/08/22 04:28:26;;;;;;;3.67;1.52;;;16.50;99.90;;;;;;4994299;28;20027;-67
2022/08/22 04:31:00;;;;;;;1.30;1.00;;;16.50;99.90;;;;;;4993798;28;20031;-70
2022/08/22 04:33:35;;;;;;;0.80;0.80;;;16.50;99.90;;;;;;4994244;28;20061;-69
2022/08/22 04:36:16;;;;;;;1.05;0.95;;;16.40;99.90;;;;;;4993381;28;20080;-69
2022/08/22 04:38:55;;;;;;;2.78;1.00;;;16.50;99.90;;;;;;4993962;28;20034;-69
2022/08/22 04:41:27;;;;;;;1.40;0.90;;;16.50;99.90;;;;;;4994105;28;20065;-67
2022/08/22 04:44:04;;;;;;;1.35;1.08;;;16.40;99.90;;;;;;4993538;28;20030;-68
2022/08/22 04:46:37;;;;;;;1.58;0.93;;;16.40;99.90;;;;;;4993763;28;20033;-69
2022/08/22 04:49:31;;;;;;;2.22;1.52;;;16.40;99.90;;;;;;4992803;28;20030;-69
2022/08/22 04:52:09;;;;;;;2.35;1.48;;;16.40;99.90;;;;;;4975665;28;20026;-70
2022/08/22 04:54:42;;;;;;;2.63;1.10;;;16.40;99.90;;;;;;4993617;28;20026;-70
2022/08/22 04:57:14;;;;;;;3.38;1.00;;;16.40;99.90;;;;;;4993181;28;20034;-69
2022/08/22 04:59:40;;;;;;;2.17;1.25;;;16.40;99.90;;;;;;4993631;28;20057;-67
2022/08/22 05:02:10;;;;;;;1.83;1.13;;;16.40;99.90;;;;;;4993439;28;20105;-70
2022/08/22 05:04:46;;;;;;;1.58;1.20;;;16.30;99.90;;;;;;4993272;28;20542;-69
2022/08/22 05:07:31;;;;;;;1.95;1.33;;;16.30;99.90;;;;;;4994965;28;20466;-70
2022/08/22 05:10:07;;;;;;;2.03;0.95;;;16.30;99.90;;;;;;4993044;28;20040;-69
2022/08/22 05:12:38;;;;;;;2.28;1.00;;;16.30;99.90;;;;;;4993231;28;20442;-69
2022/08/22 05:15:20;;;;;;;1.42;1.13;;;16.30;99.90;;;;;;4993294;28;20109;-70
2022/08/22 05:17:48;;;;;;;2.17;0.98;;;16.20;99.90;;;;;;4995553;28;20572;-69
2022/08/22 05:20:20;;;;;;;1.95;0.90;;;16.20;99.90;;;;;;4992794;28;20578;-70
2022/08/22 05:22:51;;;;;;;1.95;1.10;;;16.30;99.90;;;;;;4993451;28;20030;-69
2022/08/22 05:25:19;;;;;;;;;;;16.30;99.90;;;;;;4994229;28;20044;-69
2022/08/22 05:27:53;;;;;;;1.73;1.20;;;16.20;99.90;;;;;;4993428;28;19906;-68
2022/08/22 05:30:23;;;;;;;2.25;0.75;;;16.20;99.90;;;;;;4992739;28;20357;-68
2022/08/22 05:33:02;;;;;;;1.55;1.08;;;16.20;99.90;;;;;;4993260;28;20030;-68
2022/08/22 05:35:42;;;;;;;1.23;0.95;;;16.20;99.90;;;;;;4993247;28;20084;-68
2022/08/22 05:38:13;;;;;;;3.42;1.40;;;16.20;99.90;;;;;;4992869;28;20499;-68
2022/08/22 05:40:41;;;;;;;3.20;1.05;;;16.20;99.90;;;;;;4993545;28;20061;-67
2022/08/22 05:43:10;;;;;;;1.50;1.13;;;16.20;99.90;;;;;;4992833;28;20031;-68
2022/08/22 05:45:38;;;;;;;1.60;1.10;;;16.20;99.90;;;;;;4992716;28;20517;-67
2022/08/22 05:48:24;;;;;;;1.35;0.90;;;16.20;99.90;;;;;;4992680;28;20101;-69
2022/08/22 05:50:57;;;;;;;1.50;0.82;;;16.20;99.90;;;;;;4992907;28;20033;-69
2022/08/22 05:53:37;;;;;;;1.67;1.08;;;16.20;99.90;;;;;;4992961;28;20080;-68
2022/08/22 05:56:23;;;;;;;2.28;1.10;;;16.20;99.90;;;;;;4992558;28;20168;-68
2022/08/22 05:59:01;;;;;;;1.20;1.02;;;16.20;99.90;;;;;;4991795;28;20503;-68
2022/08/22 06:01:40;;;;;;;2.13;1.20;;;16.20;99.90;;;;;;4995655;28;20027;-68
2022/08/22 06:04:30;;;;;;;1.70;1.30;;;16.20;99.90;;;;;;4996555;28;20038;-69
2022/08/22 06:07:02;;;;;;;0.95;0.80;;;16.20;99.90;;;;;;4996835;28;20030;-68
2022/08/22 06:09:34;;;;;;;1.25;0.98;;;16.20;99.90;;;;;;4996863;28;20034;-68
2022/08/22 06:12:10;;;;;;;1.52;1.08;;;16.20;99.90;;;;;;4996449;28;20034;-69
2022/08/22 06:15:02;;;;;;;1.88;1.10;;;16.20;99.90;;;;;;4996698;28;20089;-68
2022/08/22 06:17:34;;;;;;;1.10;1.00;;;16.20;99.90;;;;;;4996454;28;20031;-69
2022/08/22 06:20:00;;;;;;;1.10;0.90;;;16.30;99.90;;;;;;4996103;28;20046;-69
2022/08/22 06:22:31;;;;;;;1.27;1.02;;;16.30;99.90;;;;;;4996412;28;20438;-68
2022/08/22 06:25:11;;;;;;;1.85;1.17;;;16.30;99.90;;;;;;4996859;28;20034;-68
2022/08/22 06:27:38;;;;;;;2.38;1.33;;;16.30;99.90;;;;;;4996709;28;20034;-68
2022/08/22 06:30:06;;;;;;;2.85;1.20;;;16.30;99.90;;;;;;4995671;28;20081;-68
2022/08/22 06:32:40;;;;;;;2.28;1.27;;;16.40;99.90;;;;;;4996140;28;20030;-68
2022/08/22 06:35:15;;;;;;;3.42;1.38;;;16.40;99.90;;;;;;4995824;28;20108;-69
2022/08/22 06:37:44;;;;;;;3.70;1.30;;;16.40;99.90;;;;;;4996307;28;20029;-69
2022/08/22 06:40:14;;;;;;;3.15;1.08;;;16.40;99.90;;;;;;4995724;28;20026;-68
2022/08/22 06:42:43;;;;;;;2.35;1.20;;;16.40;99.90;;;;;;4995874;28;20037;-68
2022/08/22 06:45:20;;;;;;;1.15;1.05;;;16.50;99.90;;;;;;4995677;28;20044;-69
2022/08/22 06:48:04;;;;;;;2.33;1.35;;;16.50;99.90;;;;;;4996043;28;20030;-68
2022/08/22 06:50:37;;;;;;;3.10;1.40;;;16.50;99.90;;;;;;4996069;28;20030;-68
2022/08/22 06:53:03;;;;;;;3.83;1.15;;;16.50;99.90;;;;;;4995429;28;20058;-69
2022/08/22 06:55:30;;;;;;;1.20;1.10;;;16.50;99.90;;;;;;4995903;28;20034;-68
2022/08/22 06:58:02;;;;;;;2.03;1.35;;;16.50;99.90;;;;;;4995503;28;20022;-68
2022/08/22 07:00:30;;;;;;;1.52;1.38;;;16.50;99.90;;;;;;4995658;28;20109;-68
2022/08/22 07:03:07;;;;;;;2.38;1.38;;;16.50;99.90;;;;;;4995770;28;20031;-68
2022/08/22 07:05:41;;;;;;;1.73;1.45;;;16.50;99.90;;;;;;4995889;28;20463;-68
2022/08/22 07:08:17;;;;;;;1.55;1.25;;;16.50;99.90;;;;;;4995217;28;20476;-69
2022/08/22 07:10:49;;;;;;;1.15;1.05;;;16.50;99.90;;;;;;4995723;28;20061;-69
2022/08/22 07:13:18;;;;;;;1.67;1.50;;;16.50;99.90;;;;;;4994535;28;20088;-70
2022/08/22 07:15:54;;;;;;;4.90;1.38;;;16.50;99.90;;;;;;5012853;28;20052;-69
2022/08/22 07:18:25;;;;;;;3.70;1.52;;;16.50;99.90;;;;;;5014978;28;20030;-68
2022/08/22 07:20:58;;;;;;;2.75;1.38;;;16.50;99.90;;;;;;5013432;28;20113;-69
2022/08/22 07:23:34;;;;;;;1.67;1.42;;;16.50;99.90;;;;;;4995255;28;20459;-69
2022/08/22 07:26:30;;;;;;;3.65;1.50;;;16.60;99.90;;;;;;4995294;28;20030;-70
2022/08/22 07:28:59;;;;;;;2.30;1.38;;;16.60;99.90;;;;;;4995274;28;20034;-70
2022/08/22 07:31:48;;;;;;;2.10;1.58;;;16.60;99.90;;;;;;4994862;28;20503;-70
2022/08/22 07:34:33;;;;;;;1.75;1.30;;;16.70;99.90;;;;;;4994882;28;20088;-70
2022/08/22 07:37:05;;;;;;;1.60;1.45;;;16.70;99.90;;;;;;4995104;28;20121;-69
2022/08/22 07:39:34;;;;;;;1.30;1.08;;;16.80;99.90;;;;;;4995192;28;20380;-69
2022/08/22 07:42:23;;;;;;;1.10;1.00;;;16.80;99.90;;;;;;4994770;28;20113;-69
2022/08/22 07:45:00;;;;;;;0.82;0.80;;;16.80;99.90;;;;;;4995043;28;20402;-69
2022/08/22 07:47:52;;;;;;;1.00;0.90;;;16.80;99.90;;;;;;4994719;28;20034;-69
2022/08/22 07:50:24;;;;;;;1.23;1.00;;;16.80;99.90;;;;;;4994353;28;20030;-69
2022/08/22 07:52:52;;;;;;;1.45;1.10;;;16.90;99.90;;;;;;4995018;28;20324;-69
2022/08/22 07:55:21;;;;;;;1.27;1.15;;;16.80;99.90;;;;;;4994474;28;20495;-69
2022/08/22 07:57:54;;;;;;;1.58;0.82;;;16.90;99.90;;;;;;4994756;28;20046;-69
2022/08/22 08:00:21;;;;;;;1.20;0.98;;;16.90;99.90;;;;;;4994554;28;20050;-69
2022/08/22 08:02:52;;;;;;;1.08;0.95;;;17.00;99.90;;;;;;4994419;28;20054;-69
2022/08/22 08:05:20;;;;;;;0.73;0.73;;;17.00;99.90;;;;;;4994369;28;20379;-69
2022/08/22 08:07:47;;;;;;;0.80;0.80;;;17.10;99.90;;;;;;4994475;28;20037;-69
2022/08/22 08:10:22;;;;;;;0.80;0.70;;;17.10;99.90;;;;;;4994188;28;20031;-70
2022/08/22 08:12:52;;;;;;;1.25;0.70;;;17.10;99.90;;;;;;4994763;28;20432;-69
2022/08/22 08:15:20;;;;;;;2.30;0.90;;;17.20;99.90;;;;;;4994027;28;20034;-69
2022/08/22 08:17:51;;;;;;;1.02;0.68;;;17.20;99.90;;;;;;4994513;28;20054;-69
2022/08/22 08:20:20;;;;;;;1.00;0.90;;;17.20;99.90;;;;;;4993759;28;20101;-69
2022/08/22 08:22:48;;;;;;;0.60;0.60;;;17.20;99.90;;;;;;4994562;28;20034;-69
2022/08/22 08:25:21;;;;;;;1.75;0.80;;;17.20;99.90;;;;;;4992946;28;20030;-69
2022/08/22 08:30:51;;;;;;;2.05;0.88;;;17.30;99.90;;;;;;4994324;28;20101;-68
2022/08/22 08:33:20;;;;;;;1.40;0.90;;;17.30;99.90;;;;;;4994109;28;20484;-69
2022/08/22 08:36:06;;;;;;;4.15;1.00;;;17.30;99.90;;;;;;4993992;28;20035;-69
2022/08/22 08:38:54;;;;;;;1.02;0.98;;;17.30;99.90;;;;;;4993386;28;20065;-67
2022/08/22 08:41:23;;;;;;;1.52;0.95;;;17.30;99.90;;;;;;4993376;28;20058;-68
2022/08/22 08:44:00;;;;;;;1.02;0.68;;;17.40;99.90;;;;;;4993779;28;20023;-69
2022/08/22 08:46:48;;;;;;;0.55;0.50;;;17.40;99.90;;;;;;4993672;28;20319;-69
2022/08/22 08:49:47;;;;;;;0.73;0.60;;;17.40;99.90;;;;;;4993555;28;20063;-70
2022/08/22 08:52:51;;;;;;;1.35;0.70;;;17.40;99.90;;;;;;4993207;28;20121;-67
2022/08/22 08:55:38;;;;;;;0.95;0.77;;;17.30;99.90;;;;;;4993396;28;20038;-68
2022/08/22 08:58:27;;;;;;;0.63;0.50;;;17.30;99.90;;;;;;4993869;28;20053;-68
2022/08/22 09:01:27;;;;;;;1.10;0.82;;;17.20;99.90;;;;;;4993856;28;20077;-68
2022/08/22 09:04:14;;;;;;;0.80;0.65;;;17.30;99.90;;;;;;4993511;28;20030;-69
2022/08/22 09:06:42;;;;;;;0.50;0.50;;;17.30;99.90;;;;;;4993645;28;20037;-69
2022/08/22 09:09:22;;;;;;;0.60;0.50;;;17.30;99.90;;;;;;4993240;28;20427;-69
2022/08/22 09:12:00;;;;;;;0.75;0.68;;;17.30;99.90;;;;;;4993478;28;20031;-69
2022/08/22 09:14:41;;;;;;;0.88;0.70;;;17.30;99.90;;;;;;4993172;28;20058;-68
2022/08/22 09:17:43;;;;;;;0.82;0.60;;;17.30;99.90;;;;;;4993485;28;20038;-69
2022/08/22 09:20:29;;;;;;;1.02;0.70;;;17.30;99.90;;;;;;4993010;28;20046;-67
2022/08/22 09:23:29;;;;;;;1.40;0.98;;;17.30;99.90;;;;;;5010407;28;20065;-69
2022/08/22 09:25:59;;;;;;;0.90;0.87;;;17.40;99.90;;;;;;4926462;28;20046;-70
2022/08/22 09:28:47;;;;;;;0.70;0.57;;;17.30;99.90;;;;;;4992870;28;20023;-68
2022/08/22 09:31:31;;;;;;;1.00;0.90;;;17.40;99.90;;;;;;4992434;28;20768;-69
2022/08/22 09:34:25;;;;;;;1.05;0.68;;;17.50;99.90;;;;;;4993165;28;20033;-68
2022/08/22 09:37:08;;;;;;;1.13;0.75;;;17.50;99.90;;;;;;4992814;28;20224;-68
2022/08/22 09:39:59;;;;;;;2.90;0.80;;;17.40;99.90;;;;;;4992737;28;20030;-68
2022/08/22 09:42:34;;;;;;;1.13;0.70;;;17.50;99.90;;;;;;4992381;28;20093;-68
2022/08/22 09:45:05;;;;;;;1.48;0.90;;;17.50;99.90;;;;;;4993616;28;20038;-68
2022/08/22 09:47:46;;;;;;;3.00;0.60;;;17.50;99.90;;;;;;4992574;28;20537;-68
2022/08/22 09:50:18;;;;;;;0.85;0.70;;;17.50;99.90;;;;;;4993036;28;20374;-68
2022/08/22 09:52:58;;;;;;;0.60;0.60;;;17.50;99.90;;;;;;4992991;28;20046;-68
2022/08/22 09:55:45;;;;;;;0.70;0.65;;;17.50;99.90;;;;;;4992519;28;20459;-69
2022/08/22 09:58:40;;;;;;;0.55;0.55;;;17.50;99.90;;;;;;4992783;28;20026;-69
2022/08/22 10:01:26;;;;;;;1.02;0.57;;;17.60;99.90;;;;;;4992977;28;20030;-69
2022/08/22 10:04:10;;;;;;;0.73;0.70;;;17.60;99.90;;;;;;4992904;28;20033;-68
2022/08/22 10:06:51;;;;;;;0.73;0.57;;;17.60;99.90;;;;;;4992666;28;20479;-69
2022/08/22 10:09:45;;;;;;;;;;;17.50;99.90;;;;;;4992846;28;20057;-68
2022/08/22 10:12:18;;;;;;;0.70;0.60;;;17.50;99.90;;;;;;4992615;28;20342;-69
2022/08/22 10:15:21;;;;;;;0.52;0.52;;;17.40;99.90;;;;;;4992973;28;20468;-69
2022/08/22 10:18:04;;;;;;;0.70;0.68;;;17.40;99.90;;;;;;4992967;28;20050;-68
2022/08/22 10:20:45;;;;;;;1.15;0.80;;;17.40;99.90;;;;;;4992338;28;20050;-69
2022/08/22 10:23:22;;;;;;;0.60;0.60;;;17.40;99.90;;;;;;4992828;28;20545;-69
2022/08/22 10:25:55;;;;;;;0.90;0.70;;;17.40;99.90;;;;;;4992799;28;20110;-69
2022/08/22 10:28:48;;;;;;;0.45;0.45;;;17.30;99.90;;;;;;4992393;28;20081;-70
2022/08/22 10:31:36;;;;;;;0.82;0.68;;;17.40;99.90;;;;;;4992986;28;20040;-69
2022/08/22 10:34:07;;;;;;;1.10;0.50;;;17.40;99.90;;;;;;4992678;28;20022;-69
2022/08/22 10:37:10;;;;;;;0.70;0.70;;;17.40;99.90;;;;;;4991935;28;20455;-69
2022/08/22 10:39:47;;;;;;;1.75;0.43;;;17.40;99.90;;;;;;4991812;28;20026;-68
2022/08/22 10:42:47;;;;;;;0.82;0.63;;;17.40;99.90;;;;;;4992550;28;20030;-68
2022/08/22 10:45:19;;;;;;;0.50;0.47;;;17.30;99.90;;;;;;4949157;28;20046;-68
2022/08/22 10:47:56;;;;;;;0.50;0.50;;;17.40;99.90;;;;;;4993884;28;20267;-68
2022/08/22 10:50:35;;;;;;;1.15;0.73;;;17.40;99.90;;;;;;4995762;28;20467;-68
2022/08/22 10:53:28;;;;;;;0.75;0.60;;;17.30;99.90;;;;;;4996158;28;20034;-68
2022/08/22 10:56:18;;;;;;;0.50;0.50;;;17.30;99.90;;;;;;4995983;28;20030;-68
2022/08/22 10:58:54;;;;;;;0.40;0.40;;;17.30;99.90;;;;;;4955746;28;20050;-68
2022/08/22 11:01:25;;;;;;;0.50;0.40;;;17.30;99.90;;;;;;4995629;28;20041;-69
2022/08/22 11:03:51;;;;;;;0.47;0.47;;;17.40;99.90;;;;;;4995967;28;20065;-68
2022/08/22 11:06:23;;;;;;;0.50;0.30;;;17.40;99.90;;;;;;4995888;28;20041;-68
2022/08/22 11:09:06;;;;;;;0.50;0.50;;;17.40;99.90;;;;;;4995847;28;20030;-68
2022/08/22 11:11:38;;;;;;;0.45;0.45;;;17.40;99.90;;;;;;4995273;28;20029;-69
2022/08/22 11:14:06;;;;;;;0.95;0.40;;;17.40;99.90;;;;;;4995578;28;20026;-68
2022/08/22 11:16:37;;;;;;;0.70;0.52;;;17.30;99.90;;;;;;4994745;28;20570;-68
2022/08/22 11:19:27;;;;;;;0.80;0.70;;;17.30;99.90;;;;;;4995328;28;20026;-68
2022/08/22 11:22:33;;;;;;;0.43;0.43;;;17.30;99.90;;;;;;4995291;28;20476;-68
2022/08/22 11:25:11;;;;;;;0.60;0.40;;;17.40;99.90;;;;;;4995142;28;20513;-68
2022/08/22 11:27:49;;;;;;;0.95;0.50;;;17.40;99.90;;;;;;4996546;28;20443;-69
2022/08/22 11:30:28;;;;;;;0.38;0.38;;;17.40;99.90;;;;;;4995271;28;20081;-69
2022/08/22 11:33:12;;;;;;;0.60;0.50;;;17.50;99.90;;;;;;4995332;28;20463;-69
2022/08/22 11:35:58;;;;;;;0.57;0.45;;;17.50;99.90;;;;;;4994820;28;20073;-69
2022/08/22 11:38:33;;;;;;;0.57;0.50;;;17.50;99.90;;;;;;4994916;28;20084;-70
2022/08/22 11:41:11;;;;;;;0.50;0.43;;;17.50;99.90;;;;;;4995372;28;20467;-69
2022/08/22 11:44:18;;;;;;;0.75;0.30;;;17.50;99.90;;;;;;4994846;28;20364;-69
2022/08/22 11:46:48;;;;;;;0.40;0.40;;;17.50;99.90;;;;;;4981653;28;20073;-69
2022/08/22 11:49:28;;;;;;;0.38;0.30;;;17.50;99.90;;;;;;4994917;28;20467;-69
2022/08/22 11:52:06;;;;;;;4.57;0.50;;;17.60;99.90;;;;;;4995084;28;20054;-69
2022/08/22 11:54:49;;;;;;;0.40;0.40;;;17.60;99.90;;;;;;4994583;28;20479;-69
2022/08/22 11:57:39;;;;;;;0.40;0.40;;;17.60;99.90;;;;;;4995075;28;20035;-69
2022/08/22 12:00:21;;;;;;;0.40;0.40;;;17.70;99.90;;;;;;4994858;28;20101;-70
2022/08/22 12:03:16;;;;;;;0.35;0.30;;;17.70;99.90;;;;;;4994471;28;20149;-70
2022/08/22 12:05:47;;;;;;;1.38;0.60;;;17.80;99.90;;;;;;4994153;28;20038;-70
2022/08/22 12:08:39;;;;;;;0.77;0.60;;;17.80;99.90;;;;;;4994687;28;20030;-69
2022/08/22 12:11:25;;;;;;;0.95;0.55;;;17.90;99.90;;;;;;4993853;28;20372;-69
2022/08/22 12:14:01;;;;;;;0.40;0.40;;;17.90;99.90;;;;;;4994454;28;20045;-69
2022/08/22 12:16:49;;;;;;;0.45;0.45;;;18.00;99.90;;;;;;4994156;28;20096;-69
2022/08/22 12:19:27;;;;;;;1.75;0.45;;;17.90;99.90;;;;;;4993203;28;20570;-69
2022/08/22 12:22:30;;;;;;;1.13;0.50;;;17.90;99.90;;;;;;4994398;28;20026;-70
2022/08/22 12:25:28;;;;;;;2.28;0.47;;;17.90;99.90;;;;;;4994089;28;20120;-70
2022/08/22 12:28:23;;;;;;;0.68;0.65;;;17.90;99.90;;;;;;4994283;28;20029;-70
2022/08/22 12:31:01;;;;;;;0.50;0.50;;;17.80;99.90;;;;;;4993925;28;20042;-70
2022/08/22 12:33:38;;;;;;;1.05;0.70;;;17.80;99.90;;;;;;4993900;28;20029;-71
2022/08/22 12:36:19;;;;;;;0.93;0.50;;;17.80;99.90;;;;;;4994158;28;20042;-69
2022/08/22 12:39:00;;;;;;;0.68;0.50;;;17.80;99.90;;;;;;4993716;28;20077;-69
2022/08/22 12:41:36;;;;;;;0.88;0.47;;;17.80;99.90;;;;;;4993689;28;20026;-69
2022/08/22 12:44:01;;;;;;;1.65;0.43;;;17.80;99.90;;;;;;4993725;28;20053;-70
2022/08/22 12:47:03;;;;;;;0.88;0.40;;;17.80;99.90;;;;;;4993556;28;20416;-72
2022/08/22 12:49:37;;;;;;;0.77;0.50;;;17.80;99.90;;;;;;4993297;28;20460;-70
2022/08/22 12:52:20;;;;;;;2.08;0.40;;;17.80;99.90;;;;;;4993852;28;20058;-70
2022/08/22 12:55:01;;;;;;;0.70;0.52;;;17.80;99.90;;;;;;4992979;28;20034;-70
2022/08/22 12:57:45;;;;;;;1.85;0.50;;;17.80;99.90;;;;;;4993375;28;20031;-70
2022/08/22 13:00:38;;;;;;;0.93;0.50;;;17.90;99.90;;;;;;4993687;28;20121;-69
2022/08/22 13:03:20;;;;;;;0.40;0.40;;;17.90;99.90;;;;;;4976184;28;20428;-70
2022/08/22 13:05:47;;;;;;;0.88;0.60;;;17.90;99.90;;;;;;4993116;28;20117;-70
2022/08/22 13:08:35;;;;;;;0.40;0.40;;;18.00;99.90;;;;;;4993307;28;20027;-70
2022/08/22 13:11:07;;;;;;;0.70;0.30;;;18.00;99.90;;;;;;4993062;28;20066;-70
2022/08/22 13:13:59;;;;;;;0.35;0.32;;;18.10;99.90;;;;;;4993048;28;20022;-71
2022/08/22 13:16:36;;;;;;;0.32;0.20;;;18.10;99.90;;;;;;4989214;28;20050;-70
2022/08/22 13:19:08;;;;;;;0.30;0.30;;;18.20;99.90;;;;;;4993175;28;20395;-69
2022/08/22 13:21:39;;;;;;;0.25;0.25;;;18.20;99.90;;;;;;4992674;28;20073;-69
2022/08/22 13:24:27;;;;;;;0.28;0.28;;;18.20;99.90;;;;;;4992984;28;20109;-68
2022/08/22 13:27:00;;;;;;;0.40;0.40;;;18.20;99.90;;;;;;4992573;28;20121;-69
2022/08/22 13:29:38;;;;;;;0.20;0.20;;;18.20;99.90;;;;;;4995798;28;20379;-70
2022/08/22 13:32:05;;;;;;;1.05;0.40;;;18.20;99.90;;;;;;5012947;28;20030;-70
2022/08/22 13:34:38;;;;;;;0.40;0.35;;;18.20;99.90;;;;;;5012250;28;20030;-72
2022/08/22 13:37:05;;;;;;;0.52;0.45;;;18.10;99.90;;;;;;5011953;28;20034;-70
2022/08/22 13:39:35;;;;;;;0.90;0.43;;;18.10;99.90;;;;;;5012048;28;20025;-72
2022/08/22 13:42:04;;;;;;;0.40;0.40;;;18.00;99.90;;;;;;5012750;28;20180;-69
2022/08/22 13:44:37;;;;;;;0.15;0.15;;;18.00;99.90;;;;;;5012757;28;20030;-69
2022/08/22 13:47:08;;;;;;;0.25;0.25;;;18.00;99.90;;;;;;5012682;28;20034;-70
2022/08/22 13:49:38;;;;;;;0.30;0.30;;;17.90;99.90;;;;;;5012284;28;20026;-70
2022/08/22 13:52:30;;;;;;;0.52;0.32;;;17.90;99.90;;;;;;5012770;28;20061;-70
2022/08/22 13:55:06;;;;;;;1.10;0.30;;;17.80;99.90;;;;;;5012362;28;20042;-70
2022/08/22 13:57:46;;;;;;;0.47;0.40;;;17.80;99.90;;;;;;5012586;28;20037;-71
2022/08/22 14:00:53;;;;;;;0.57;0.30;;;17.90;99.90;;;;;;5012650;28;20482;-70